sensor_id;sensor_type;location;lat;lon;timestamp;P1;durP1;ratioP1;P2;durP2;ratioP2
46753;SDS011;32500;50.620;3.400;2023-05-10T00:01:46;88.10;;;53.33;;
46753;SDS011;32500;50.620;3.400;2023-05-10T00:04:11;90.82;;;53.90;;
46753;SDS011;32500;50.620;3.400;2023-05-10T00:06:37;91.50;;;54.10;;
46753;SDS011;32500;50.620;3.400;2023-05-10T00:09:02;89.07;;;53.88;;
46753;SDS011;32500;50.620;3.400;2023-05-10T00:11:28;89.90;;;53.28;;
46753;SDS011;32500;50.620;3.400;2023-05-10T00:13:54;89.15;;;53.60;;
46753;SDS011;32500;50.620;3.400;2023-05-10T00:16:20;88.97;;;53.58;;
46753;SDS011;32500;50.620;3.400;2023-05-10T00:18:45;89.45;;;53.75;;
46753;SDS011;32500;50.620;3.400;2023-05-10T00:21:11;88.68;;;53.35;;
46753;SDS011;32500;50.620;3.400;2023-05-10T00:23:36;88.68;;;53.88;;
46753;SDS011;32500;50.620;3.400;2023-05-10T00:26:02;88.93;;;53.80;;
46753;SDS011;32500;50.620;3.400;2023-05-10T00:28:28;88.82;;;53.22;;
46753;SDS011;32500;50.620;3.400;2023-05-10T00:30:54;89.93;;;53.85;;
46753;SDS011;32500;50.620;3.400;2023-05-10T00:33:20;89.03;;;53.60;;
46753;SDS011;32500;50.620;3.400;2023-05-10T00:35:46;88.68;;;53.75;;
46753;SDS011;32500;50.620;3.400;2023-05-10T00:38:11;88.60;;;53.67;;
46753;SDS011;32500;50.620;3.400;2023-05-10T00:40:37;89.07;;;53.72;;
46753;SDS011;32500;50.620;3.400;2023-05-10T00:43:03;88.95;;;53.60;;
46753;SDS011;32500;50.620;3.400;2023-05-10T00:45:30;88.97;;;53.72;;
46753;SDS011;32500;50.620;3.400;2023-05-10T00:47:57;88.22;;;53.20;;
46753;SDS011;32500;50.620;3.400;2023-05-10T00:50:24;92.20;;;53.83;;
46753;SDS011;32500;50.620;3.400;2023-05-10T00:52:51;88.05;;;53.45;;
46753;SDS011;32500;50.620;3.400;2023-05-10T00:55:17;88.40;;;53.42;;
46753;SDS011;32500;50.620;3.400;2023-05-10T00:57:44;89.28;;;53.25;;
46753;SDS011;32500;50.620;3.400;2023-05-10T01:00:10;88.43;;;53.38;;
46753;SDS011;32500;50.620;3.400;2023-05-10T01:02:37;88.32;;;53.63;;
46753;SDS011;32500;50.620;3.400;2023-05-10T01:05:03;88.85;;;53.22;;
46753;SDS011;32500;50.620;3.400;2023-05-10T01:07:29;88.47;;;53.65;;
46753;SDS011;32500;50.620;3.400;2023-05-10T01:09:54;87.90;;;53.60;;
46753;SDS011;32500;50.620;3.400;2023-05-10T01:12:21;87.57;;;53.33;;
46753;SDS011;32500;50.620;3.400;2023-05-10T01:14:46;88.38;;;53.28;;
46753;SDS011;32500;50.620;3.400;2023-05-10T01:17:13;88.95;;;53.67;;
46753;SDS011;32500;50.620;3.400;2023-05-10T01:19:39;88.43;;;53.60;;
46753;SDS011;32500;50.620;3.400;2023-05-10T01:33:46;87.88;;;53.15;;
46753;SDS011;32500;50.620;3.400;2023-05-10T01:36:30;87.85;;;53.33;;
46753;SDS011;32500;50.620;3.400;2023-05-10T01:39:28;87.55;;;53.20;;
46753;SDS011;32500;50.620;3.400;2023-05-10T01:42:20;87.57;;;53.50;;
46753;SDS011;32500;50.620;3.400;2023-05-10T01:44:59;88.13;;;52.90;;
46753;SDS011;32500;50.620;3.400;2023-05-10T01:47:37;87.95;;;53.38;;
46753;SDS011;32500;50.620;3.400;2023-05-10T01:50:08;87.35;;;53.42;;
46753;SDS011;32500;50.620;3.400;2023-05-10T01:52:38;88.35;;;53.13;;
46753;SDS011;32500;50.620;3.400;2023-05-10T01:55:09;88.13;;;53.65;;
46753;SDS011;32500;50.620;3.400;2023-05-10T01:57:39;88.20;;;53.75;;
46753;SDS011;32500;50.620;3.400;2023-05-10T02:00:07;88.10;;;53.72;;
46753;SDS011;32500;50.620;3.400;2023-05-10T02:02:37;87.85;;;53.13;;
46753;SDS011;32500;50.620;3.400;2023-05-10T02:05:07;87.88;;;53.53;;
46753;SDS011;32500;50.620;3.400;2023-05-10T02:07:35;88.32;;;53.30;;
46753;SDS011;32500;50.620;3.400;2023-05-10T02:10:02;88.03;;;53.03;;
46753;SDS011;32500;50.620;3.400;2023-05-10T02:12:35;88.30;;;53.57;;
46753;SDS011;32500;50.620;3.400;2023-05-10T02:15:03;86.93;;;53.05;;
46753;SDS011;32500;50.620;3.400;2023-05-10T02:17:31;88.82;;;53.45;;
46753;SDS011;32500;50.620;3.400;2023-05-10T02:19:58;89.55;;;53.70;;
46753;SDS011;32500;50.620;3.400;2023-05-10T02:22:26;87.22;;;53.20;;
46753;SDS011;32500;50.620;3.400;2023-05-10T02:24:54;87.38;;;53.13;;
46753;SDS011;32500;50.620;3.400;2023-05-10T02:27:22;89.38;;;53.45;;
46753;SDS011;32500;50.620;3.400;2023-05-10T02:29:50;87.90;;;52.78;;
46753;SDS011;32500;50.620;3.400;2023-05-10T02:32:16;87.78;;;53.30;;
46753;SDS011;32500;50.620;3.400;2023-05-10T02:34:44;87.38;;;53.40;;
46753;SDS011;32500;50.620;3.400;2023-05-10T02:37:11;88.25;;;53.42;;
46753;SDS011;32500;50.620;3.400;2023-05-10T02:39:39;87.35;;;53.25;;
46753;SDS011;32500;50.620;3.400;2023-05-10T02:42:10;88.00;;;53.13;;
46753;SDS011;32500;50.620;3.400;2023-05-10T02:44:41;88.07;;;53.08;;
46753;SDS011;32500;50.620;3.400;2023-05-10T02:47:10;88.13;;;53.17;;
46753;SDS011;32500;50.620;3.400;2023-05-10T02:49:36;88.60;;;53.35;;
46753;SDS011;32500;50.620;3.400;2023-05-10T02:52:02;89.13;;;53.55;;
46753;SDS011;32500;50.620;3.400;2023-05-10T02:54:33;88.35;;;53.08;;
46753;SDS011;32500;50.620;3.400;2023-05-10T02:57:03;87.22;;;52.88;;
46753;SDS011;32500;50.620;3.400;2023-05-10T02:59:30;88.60;;;53.22;;
46753;SDS011;32500;50.620;3.400;2023-05-10T03:01:58;87.15;;;53.00;;
46753;SDS011;32500;50.620;3.400;2023-05-10T03:04:25;86.72;;;53.00;;
46753;SDS011;32500;50.620;3.400;2023-05-10T03:06:51;88.00;;;53.08;;
46753;SDS011;32500;50.620;3.400;2023-05-10T03:09:17;88.90;;;52.88;;
46753;SDS011;32500;50.620;3.400;2023-05-10T03:19:59;87.90;;;53.08;;
46753;SDS011;32500;50.620;3.400;2023-05-10T03:22:38;86.97;;;52.92;;
46753;SDS011;32500;50.620;3.400;2023-05-10T03:25:10;87.07;;;52.63;;
46753;SDS011;32500;50.620;3.400;2023-05-10T03:27:39;89.10;;;52.78;;
46753;SDS011;32500;50.620;3.400;2023-05-10T03:30:10;87.88;;;52.95;;
46753;SDS011;32500;50.620;3.400;2023-05-10T03:32:37;87.37;;;52.97;;
46753;SDS011;32500;50.620;3.400;2023-05-10T03:35:09;87.53;;;52.78;;
46753;SDS011;32500;50.620;3.400;2023-05-10T03:37:37;87.32;;;52.80;;
46753;SDS011;32500;50.620;3.400;2023-05-10T03:40:02;86.85;;;52.75;;
46753;SDS011;32500;50.620;3.400;2023-05-10T03:42:29;87.80;;;52.85;;
46753;SDS011;32500;50.620;3.400;2023-05-10T03:44:54;86.72;;;52.80;;
46753;SDS011;32500;50.620;3.400;2023-05-10T03:47:20;87.28;;;52.85;;
46753;SDS011;32500;50.620;3.400;2023-05-10T03:49:46;87.53;;;53.00;;
46753;SDS011;32500;50.620;3.400;2023-05-10T03:52:11;88.05;;;53.25;;
46753;SDS011;32500;50.620;3.400;2023-05-10T03:54:37;87.22;;;53.08;;
46753;SDS011;32500;50.620;3.400;2023-05-10T03:57:03;88.63;;;52.90;;
46753;SDS011;32500;50.620;3.400;2023-05-10T03:59:29;89.18;;;53.00;;
46753;SDS011;32500;50.620;3.400;2023-05-10T04:01:55;87.88;;;53.35;;
46753;SDS011;32500;50.620;3.400;2023-05-10T04:04:20;87.75;;;52.72;;
46753;SDS011;32500;50.620;3.400;2023-05-10T04:06:46;87.43;;;53.10;;
46753;SDS011;32500;50.620;3.400;2023-05-10T04:09:12;87.28;;;52.97;;
46753;SDS011;32500;50.620;3.400;2023-05-10T04:11:38;86.43;;;52.28;;
46753;SDS011;32500;50.620;3.400;2023-05-10T04:14:04;88.32;;;52.80;;
46753;SDS011;32500;50.620;3.400;2023-05-10T04:16:30;88.30;;;52.72;;
46753;SDS011;32500;50.620;3.400;2023-05-10T04:18:56;88.10;;;52.45;;
46753;SDS011;32500;50.620;3.400;2023-05-10T04:21:22;88.18;;;53.03;;
46753;SDS011;32500;50.620;3.400;2023-05-10T04:23:48;88.40;;;52.88;;
46753;SDS011;32500;50.620;3.400;2023-05-10T04:26:13;89.45;;;53.40;;
46753;SDS011;32500;50.620;3.400;2023-05-10T04:28:39;89.00;;;52.67;;
46753;SDS011;32500;50.620;3.400;2023-05-10T04:31:05;88.68;;;53.08;;
46753;SDS011;32500;50.620;3.400;2023-05-10T04:33:31;87.00;;;52.22;;
46753;SDS011;32500;50.620;3.400;2023-05-10T04:35:57;88.18;;;52.88;;
46753;SDS011;32500;50.620;3.400;2023-05-10T04:38:23;87.07;;;52.80;;
46753;SDS011;32500;50.620;3.400;2023-05-10T04:40:48;88.80;;;52.85;;
46753;SDS011;32500;50.620;3.400;2023-05-10T04:43:14;87.85;;;52.65;;
46753;SDS011;32500;50.620;3.400;2023-05-10T04:45:40;88.50;;;52.88;;
46753;SDS011;32500;50.620;3.400;2023-05-10T04:48:05;87.20;;;52.78;;
46753;SDS011;32500;50.620;3.400;2023-05-10T04:50:31;86.43;;;52.45;;
46753;SDS011;32500;50.620;3.400;2023-05-10T04:52:56;87.38;;;52.80;;
46753;SDS011;32500;50.620;3.400;2023-05-10T04:55:22;86.53;;;52.42;;
46753;SDS011;32500;50.620;3.400;2023-05-10T04:57:48;88.25;;;52.67;;
46753;SDS011;32500;50.620;3.400;2023-05-10T05:00:14;86.68;;;52.50;;
46753;SDS011;32500;50.620;3.400;2023-05-10T05:02:43;87.47;;;52.70;;
46753;SDS011;32500;50.620;3.400;2023-05-10T05:05:10;89.28;;;52.63;;
46753;SDS011;32500;50.620;3.400;2023-05-10T05:07:38;88.47;;;53.10;;
46753;SDS011;32500;50.620;3.400;2023-05-10T05:10:05;89.38;;;52.65;;
46753;SDS011;32500;50.620;3.400;2023-05-10T05:12:31;87.18;;;52.75;;
46753;SDS011;32500;50.620;3.400;2023-05-10T05:14:57;87.57;;;52.75;;
46753;SDS011;32500;50.620;3.400;2023-05-10T05:17:23;87.47;;;52.80;;
46753;SDS011;32500;50.620;3.400;2023-05-10T05:19:48;86.18;;;52.67;;
46753;SDS011;32500;50.620;3.400;2023-05-10T05:22:14;89.93;;;52.72;;
46753;SDS011;32500;50.620;3.400;2023-05-10T05:24:40;88.55;;;53.25;;
46753;SDS011;32500;50.620;3.400;2023-05-10T05:27:05;87.47;;;52.65;;
46753;SDS011;32500;50.620;3.400;2023-05-10T05:29:31;86.88;;;52.55;;
46753;SDS011;32500;50.620;3.400;2023-05-10T05:31:57;88.80;;;52.65;;
46753;SDS011;32500;50.620;3.400;2023-05-10T05:34:22;87.70;;;52.67;;
46753;SDS011;32500;50.620;3.400;2023-05-10T05:36:49;87.65;;;52.92;;
46753;SDS011;32500;50.620;3.400;2023-05-10T05:39:16;88.13;;;52.58;;
46753;SDS011;32500;50.620;3.400;2023-05-10T05:41:41;86.05;;;52.42;;
46753;SDS011;32500;50.620;3.400;2023-05-10T05:44:07;88.88;;;52.53;;
46753;SDS011;32500;50.620;3.400;2023-05-10T05:46:33;87.22;;;52.70;;
46753;SDS011;32500;50.620;3.400;2023-05-10T05:48:59;87.28;;;52.58;;
46753;SDS011;32500;50.620;3.400;2023-05-10T05:51:24;90.50;;;52.53;;
46753;SDS011;32500;50.620;3.400;2023-05-10T05:53:50;89.05;;;52.67;;
46753;SDS011;32500;50.620;3.400;2023-05-10T05:56:16;88.65;;;52.47;;
46753;SDS011;32500;50.620;3.400;2023-05-10T05:58:48;87.95;;;52.78;;
46753;SDS011;32500;50.620;3.400;2023-05-10T06:01:15;87.10;;;52.65;;
46753;SDS011;32500;50.620;3.400;2023-05-10T06:03:40;87.47;;;52.40;;
46753;SDS011;32500;50.620;3.400;2023-05-10T06:06:06;86.97;;;52.75;;
46753;SDS011;32500;50.620;3.400;2023-05-10T06:08:31;86.68;;;52.85;;
46753;SDS011;32500;50.620;3.400;2023-05-10T06:10:58;86.68;;;52.80;;
46753;SDS011;32500;50.620;3.400;2023-05-10T06:13:24;87.18;;;52.83;;
46753;SDS011;32500;50.620;3.400;2023-05-10T06:15:53;87.82;;;52.75;;
46753;SDS011;32500;50.620;3.400;2023-05-10T06:18:19;88.40;;;52.75;;
46753;SDS011;32500;50.620;3.400;2023-05-10T06:20:45;87.40;;;53.08;;
46753;SDS011;32500;50.620;3.400;2023-05-10T06:23:10;88.13;;;52.90;;
46753;SDS011;32500;50.620;3.400;2023-05-10T06:25:36;87.43;;;52.67;;
46753;SDS011;32500;50.620;3.400;2023-05-10T06:28:01;92.00;;;52.95;;
46753;SDS011;32500;50.620;3.400;2023-05-10T06:30:27;90.05;;;52.92;;
46753;SDS011;32500;50.620;3.400;2023-05-10T06:32:53;88.07;;;52.60;;
46753;SDS011;32500;50.620;3.400;2023-05-10T06:35:19;87.10;;;52.45;;
46753;SDS011;32500;50.620;3.400;2023-05-10T06:37:45;87.72;;;52.67;;
46753;SDS011;32500;50.620;3.400;2023-05-10T06:40:11;86.97;;;52.67;;
46753;SDS011;32500;50.620;3.400;2023-05-10T06:42:37;88.78;;;52.83;;
46753;SDS011;32500;50.620;3.400;2023-05-10T06:45:03;85.93;;;52.40;;
46753;SDS011;32500;50.620;3.400;2023-05-10T06:47:29;88.28;;;52.65;;
46753;SDS011;32500;50.620;3.400;2023-05-10T06:49:54;86.90;;;52.72;;
46753;SDS011;32500;50.620;3.400;2023-05-10T06:52:20;86.95;;;52.92;;
46753;SDS011;32500;50.620;3.400;2023-05-10T06:54:46;88.90;;;52.70;;
46753;SDS011;32500;50.620;3.400;2023-05-10T06:57:12;87.15;;;52.70;;
46753;SDS011;32500;50.620;3.400;2023-05-10T06:59:37;87.30;;;52.63;;
46753;SDS011;32500;50.620;3.400;2023-05-10T07:02:03;87.28;;;52.63;;
46753;SDS011;32500;50.620;3.400;2023-05-10T07:04:29;87.78;;;52.65;;
46753;SDS011;32500;50.620;3.400;2023-05-10T07:06:54;87.72;;;52.58;;
46753;SDS011;32500;50.620;3.400;2023-05-10T07:09:20;86.88;;;52.47;;
46753;SDS011;32500;50.620;3.400;2023-05-10T07:11:46;87.70;;;52.90;;
46753;SDS011;32500;50.620;3.400;2023-05-10T07:14:11;87.40;;;52.72;;
46753;SDS011;32500;50.620;3.400;2023-05-10T07:16:37;89.35;;;52.67;;
46753;SDS011;32500;50.620;3.400;2023-05-10T07:19:03;86.68;;;52.53;;
46753;SDS011;32500;50.620;3.400;2023-05-10T07:21:30;86.90;;;52.78;;
46753;SDS011;32500;50.620;3.400;2023-05-10T07:23:56;86.70;;;52.72;;
46753;SDS011;32500;50.620;3.400;2023-05-10T07:26:22;87.55;;;52.70;;
46753;SDS011;32500;50.620;3.400;2023-05-10T07:28:47;87.15;;;52.70;;
46753;SDS011;32500;50.620;3.400;2023-05-10T07:31:13;87.65;;;52.70;;
46753;SDS011;32500;50.620;3.400;2023-05-10T07:33:38;86.78;;;52.63;;
46753;SDS011;32500;50.620;3.400;2023-05-10T07:36:04;86.85;;;52.92;;
46753;SDS011;32500;50.620;3.400;2023-05-10T07:38:30;86.68;;;52.63;;
46753;SDS011;32500;50.620;3.400;2023-05-10T07:40:56;86.72;;;52.47;;
46753;SDS011;32500;50.620;3.400;2023-05-10T07:43:21;87.00;;;52.50;;
46753;SDS011;32500;50.620;3.400;2023-05-10T07:45:47;87.25;;;52.83;;
46753;SDS011;32500;50.620;3.400;2023-05-10T07:48:13;86.10;;;52.20;;
46753;SDS011;32500;50.620;3.400;2023-05-10T07:50:38;86.82;;;52.65;;
46753;SDS011;32500;50.620;3.400;2023-05-10T07:53:04;87.15;;;52.63;;
46753;SDS011;32500;50.620;3.400;2023-05-10T07:55:29;87.50;;;52.50;;
46753;SDS011;32500;50.620;3.400;2023-05-10T07:57:55;86.70;;;52.63;;
46753;SDS011;32500;50.620;3.400;2023-05-10T08:00:21;86.28;;;52.55;;
46753;SDS011;32500;50.620;3.400;2023-05-10T08:02:47;86.47;;;52.35;;
46753;SDS011;32500;50.620;3.400;2023-05-10T08:05:13;86.90;;;52.40;;
46753;SDS011;32500;50.620;3.400;2023-05-10T08:07:39;88.97;;;52.58;;
46753;SDS011;32500;50.620;3.400;2023-05-10T08:10:05;88.13;;;52.67;;
46753;SDS011;32500;50.620;3.400;2023-05-10T08:12:31;86.45;;;52.55;;
46753;SDS011;32500;50.620;3.400;2023-05-10T08:14:57;86.43;;;52.63;;
46753;SDS011;32500;50.620;3.400;2023-05-10T08:17:22;87.65;;;52.38;;
46753;SDS011;32500;50.620;3.400;2023-05-10T08:19:48;87.55;;;52.75;;
46753;SDS011;32500;50.620;3.400;2023-05-10T08:22:14;86.78;;;52.45;;
46753;SDS011;32500;50.620;3.400;2023-05-10T08:24:39;90.35;;;52.85;;
46753;SDS011;32500;50.620;3.400;2023-05-10T08:27:07;88.68;;;52.45;;
46753;SDS011;32500;50.620;3.400;2023-05-10T08:29:33;88.15;;;52.60;;
46753;SDS011;32500;50.620;3.400;2023-05-10T08:31:59;86.05;;;52.40;;
46753;SDS011;32500;50.620;3.400;2023-05-10T08:34:25;86.13;;;52.17;;
46753;SDS011;32500;50.620;3.400;2023-05-10T08:36:52;86.65;;;52.60;;
46753;SDS011;32500;50.620;3.400;2023-05-10T08:39:17;87.18;;;52.58;;
46753;SDS011;32500;50.620;3.400;2023-05-10T08:41:44;86.20;;;52.47;;
46753;SDS011;32500;50.620;3.400;2023-05-10T08:44:11;88.22;;;52.70;;
46753;SDS011;32500;50.620;3.400;2023-05-10T08:46:37;86.95;;;52.65;;
46753;SDS011;32500;50.620;3.400;2023-05-10T08:51:38;86.95;;;52.65;;
46753;SDS011;32500;50.620;3.400;2023-05-10T08:54:08;88.95;;;52.60;;
46753;SDS011;32500;50.620;3.400;2023-05-10T08:56:34;87.47;;;52.53;;
46753;SDS011;32500;50.620;3.400;2023-05-10T08:58:59;87.28;;;52.65;;
46753;SDS011;32500;50.620;3.400;2023-05-10T09:01:26;87.22;;;52.67;;
46753;SDS011;32500;50.620;3.400;2023-05-10T09:03:52;86.18;;;52.47;;
46753;SDS011;32500;50.620;3.400;2023-05-10T09:06:18;88.35;;;52.90;;
46753;SDS011;32500;50.620;3.400;2023-05-10T09:08:44;87.78;;;52.38;;
46753;SDS011;32500;50.620;3.400;2023-05-10T09:11:11;88.22;;;52.72;;
46753;SDS011;32500;50.620;3.400;2023-05-10T09:13:37;88.20;;;52.65;;
46753;SDS011;32500;50.620;3.400;2023-05-10T09:16:03;87.40;;;52.72;;
46753;SDS011;32500;50.620;3.400;2023-05-10T09:18:30;87.97;;;52.47;;
46753;SDS011;32500;50.620;3.400;2023-05-10T09:20:55;87.72;;;52.85;;
46753;SDS011;32500;50.620;3.400;2023-05-10T09:23:21;88.70;;;53.03;;
46753;SDS011;32500;50.620;3.400;2023-05-10T09:25:47;88.22;;;53.00;;
46753;SDS011;32500;50.620;3.400;2023-05-10T09:28:12;87.72;;;53.05;;
46753;SDS011;32500;50.620;3.400;2023-05-10T09:30:38;87.65;;;52.78;;
46753;SDS011;32500;50.620;3.400;2023-05-10T09:33:04;87.93;;;52.90;;
46753;SDS011;32500;50.620;3.400;2023-05-10T09:35:31;87.97;;;52.88;;
46753;SDS011;32500;50.620;3.400;2023-05-10T09:38:02;87.30;;;52.95;;
46753;SDS011;32500;50.620;3.400;2023-05-10T09:40:29;87.43;;;53.08;;
46753;SDS011;32500;50.620;3.400;2023-05-10T09:42:59;88.15;;;53.17;;
46753;SDS011;32500;50.620;3.400;2023-05-10T09:45:27;89.22;;;53.10;;
46753;SDS011;32500;50.620;3.400;2023-05-10T09:47:54;88.13;;;52.88;;
46753;SDS011;32500;50.620;3.400;2023-05-10T09:50:20;89.07;;;53.10;;
46753;SDS011;32500;50.620;3.400;2023-05-10T09:53:20;86.95;;;52.97;;
46753;SDS011;32500;50.620;3.400;2023-05-10T09:55:40;88.10;;;52.90;;
46753;SDS011;32500;50.620;3.400;2023-05-10T09:58:06;86.85;;;52.55;;
46753;SDS011;32500;50.620;3.400;2023-05-10T10:00:39;90.25;;;52.95;;
46753;SDS011;32500;50.620;3.400;2023-05-10T10:03:05;87.93;;;53.10;;
46753;SDS011;32500;50.620;3.400;2023-05-10T10:05:36;89.25;;;53.25;;
46753;SDS011;32500;50.620;3.400;2023-05-10T10:08:06;87.32;;;52.95;;
46753;SDS011;32500;50.620;3.400;2023-05-10T10:10:32;87.80;;;52.95;;
46753;SDS011;32500;50.620;3.400;2023-05-10T10:12:58;87.45;;;52.97;;
46753;SDS011;32500;50.620;3.400;2023-05-10T10:15:24;87.88;;;53.10;;
46753;SDS011;32500;50.620;3.400;2023-05-10T10:17:51;87.65;;;53.15;;
46753;SDS011;32500;50.620;3.400;2023-05-10T10:20:19;88.47;;;53.30;;
46753;SDS011;32500;50.620;3.400;2023-05-10T10:22:46;88.28;;;52.95;;
46753;SDS011;32500;50.620;3.400;2023-05-10T10:25:14;89.38;;;52.95;;
46753;SDS011;32500;50.620;3.400;2023-05-10T10:30:15;87.43;;;53.15;;
46753;SDS011;32500;50.620;3.400;2023-05-10T10:35:34;88.18;;;53.65;;
46753;SDS011;32500;50.620;3.400;2023-05-10T10:38:01;89.80;;;53.92;;
46753;SDS011;32500;50.620;3.400;2023-05-10T10:40:27;89.15;;;53.72;;
46753;SDS011;32500;50.620;3.400;2023-05-10T10:42:55;88.95;;;53.75;;
46753;SDS011;32500;50.620;3.400;2023-05-10T10:45:22;89.45;;;53.85;;
46753;SDS011;32500;50.620;3.400;2023-05-10T10:50:51;91.97;;;53.50;;
46753;SDS011;32500;50.620;3.400;2023-05-10T10:53:21;89.22;;;53.55;;
46753;SDS011;32500;50.620;3.400;2023-05-10T10:55:47;88.75;;;53.30;;
46753;SDS011;32500;50.620;3.400;2023-05-10T10:58:28;88.30;;;53.40;;
46753;SDS011;32500;50.620;3.400;2023-05-10T11:01:16;88.68;;;53.45;;
46753;SDS011;32500;50.620;3.400;2023-05-10T11:06:29;88.65;;;53.40;;
46753;SDS011;32500;50.620;3.400;2023-05-10T11:08:59;88.82;;;53.40;;
46753;SDS011;32500;50.620;3.400;2023-05-10T11:11:32;87.80;;;53.00;;
46753;SDS011;32500;50.620;3.400;2023-05-10T11:14:06;88.80;;;53.35;;
46753;SDS011;32500;50.620;3.400;2023-05-10T11:16:42;87.57;;;53.38;;
46753;SDS011;32500;50.620;3.400;2023-05-10T11:19:11;88.53;;;53.20;;
46753;SDS011;32500;50.620;3.400;2023-05-10T11:24:36;89.13;;;53.38;;
46753;SDS011;32500;50.620;3.400;2023-05-10T11:27:02;88.65;;;53.10;;
46753;SDS011;32500;50.620;3.400;2023-05-10T11:29:28;88.93;;;53.33;;
46753;SDS011;32500;50.620;3.400;2023-05-10T11:31:56;88.45;;;53.35;;
46753;SDS011;32500;50.620;3.400;2023-05-10T11:34:29;88.70;;;53.25;;
46753;SDS011;32500;50.620;3.400;2023-05-10T11:36:59;88.05;;;53.30;;
46753;SDS011;32500;50.620;3.400;2023-05-10T11:39:29;89.88;;;53.28;;
46753;SDS011;32500;50.620;3.400;2023-05-10T11:41:56;88.15;;;53.33;;
46753;SDS011;32500;50.620;3.400;2023-05-10T11:44:23;88.57;;;53.35;;
46753;SDS011;32500;50.620;3.400;2023-05-10T11:46:53;89.03;;;53.25;;
46753;SDS011;32500;50.620;3.400;2023-05-10T11:49:19;88.65;;;53.42;;
46753;SDS011;32500;50.620;3.400;2023-05-10T11:51:48;88.30;;;53.33;;
46753;SDS011;32500;50.620;3.400;2023-05-10T11:54:13;88.60;;;53.65;;
46753;SDS011;32500;50.620;3.400;2023-05-10T11:56:39;88.75;;;53.58;;
46753;SDS011;32500;50.620;3.400;2023-05-10T11:59:06;89.32;;;53.22;;
46753;SDS011;32500;50.620;3.400;2023-05-10T12:01:33;89.03;;;53.17;;
46753;SDS011;32500;50.620;3.400;2023-05-10T12:04:00;88.95;;;53.55;;
46753;SDS011;32500;50.620;3.400;2023-05-10T12:06:26;89.13;;;53.33;;
46753;SDS011;32500;50.620;3.400;2023-05-10T12:08:54;88.35;;;53.20;;
46753;SDS011;32500;50.620;3.400;2023-05-10T12:11:20;89.80;;;53.63;;
46753;SDS011;32500;50.620;3.400;2023-05-10T12:13:50;88.33;;;53.30;;
46753;SDS011;32500;50.620;3.400;2023-05-10T12:16:17;88.53;;;53.20;;
46753;SDS011;32500;50.620;3.400;2023-05-10T12:18:44;88.57;;;53.47;;
46753;SDS011;32500;50.620;3.400;2023-05-10T12:21:13;88.30;;;53.13;;
46753;SDS011;32500;50.620;3.400;2023-05-10T12:23:40;89.90;;;53.78;;
46753;SDS011;32500;50.620;3.400;2023-05-10T12:26:06;90.18;;;53.83;;
46753;SDS011;32500;50.620;3.400;2023-05-10T12:28:35;88.75;;;53.40;;
46753;SDS011;32500;50.620;3.400;2023-05-10T12:31:01;89.20;;;53.40;;
46753;SDS011;32500;50.620;3.400;2023-05-10T12:33:27;88.22;;;53.25;;
46753;SDS011;32500;50.620;3.400;2023-05-10T12:36:10;88.97;;;53.42;;
46753;SDS011;32500;50.620;3.400;2023-05-10T12:38:41;88.38;;;53.28;;
46753;SDS011;32500;50.620;3.400;2023-05-10T12:41:08;89.15;;;53.42;;
46753;SDS011;32500;50.620;3.400;2023-05-10T12:43:38;89.60;;;53.35;;
46753;SDS011;32500;50.620;3.400;2023-05-10T12:46:08;89.97;;;53.33;;
46753;SDS011;32500;50.620;3.400;2023-05-10T12:48:34;92.80;;;53.85;;
46753;SDS011;32500;50.620;3.400;2023-05-10T12:51:01;90.90;;;53.85;;
46753;SDS011;32500;50.620;3.400;2023-05-10T12:53:27;90.15;;;53.78;;
46753;SDS011;32500;50.620;3.400;2023-05-10T12:55:53;89.82;;;53.65;;
46753;SDS011;32500;50.620;3.400;2023-05-10T12:58:19;91.60;;;53.53;;
46753;SDS011;32500;50.620;3.400;2023-05-10T13:00:45;90.55;;;53.85;;
46753;SDS011;32500;50.620;3.400;2023-05-10T13:03:11;89.53;;;53.58;;
46753;SDS011;32500;50.620;3.400;2023-05-10T13:05:36;89.13;;;53.58;;
46753;SDS011;32500;50.620;3.400;2023-05-10T13:08:02;90.22;;;53.63;;
46753;SDS011;32500;50.620;3.400;2023-05-10T13:10:29;90.25;;;53.78;;
46753;SDS011;32500;50.620;3.400;2023-05-10T13:12:56;89.75;;;53.58;;
46753;SDS011;32500;50.620;3.400;2023-05-10T13:15:22;91.68;;;53.70;;
46753;SDS011;32500;50.620;3.400;2023-05-10T13:17:48;89.68;;;53.80;;
46753;SDS011;32500;50.620;3.400;2023-05-10T13:20:13;91.43;;;53.78;;
46753;SDS011;32500;50.620;3.400;2023-05-10T13:22:40;90.38;;;53.78;;
46753;SDS011;32500;50.620;3.400;2023-05-10T13:25:06;91.30;;;53.58;;
46753;SDS011;32500;50.620;3.400;2023-05-10T13:27:32;91.80;;;53.85;;
46753;SDS011;32500;50.620;3.400;2023-05-10T13:29:58;90.10;;;53.83;;
46753;SDS011;32500;50.620;3.400;2023-05-10T13:32:24;91.18;;;53.90;;
46753;SDS011;32500;50.620;3.400;2023-05-10T13:34:50;91.57;;;54.05;;
46753;SDS011;32500;50.620;3.400;2023-05-10T13:37:16;91.10;;;53.63;;
46753;SDS011;32500;50.620;3.400;2023-05-10T13:39:42;91.07;;;54.03;;
46753;SDS011;32500;50.620;3.400;2023-05-10T13:42:08;90.82;;;53.88;;
46753;SDS011;32500;50.620;3.400;2023-05-10T13:44:33;90.22;;;53.90;;
46753;SDS011;32500;50.620;3.400;2023-05-10T13:46:59;94.05;;;54.25;;
46753;SDS011;32500;50.620;3.400;2023-05-10T13:49:26;92.28;;;54.30;;
46753;SDS011;32500;50.620;3.400;2023-05-10T13:51:52;90.90;;;53.97;;
46753;SDS011;32500;50.620;3.400;2023-05-10T13:54:17;91.05;;;53.95;;
46753;SDS011;32500;50.620;3.400;2023-05-10T13:56:47;91.97;;;54.25;;
46753;SDS011;32500;50.620;3.400;2023-05-10T13:59:13;90.40;;;53.63;;
46753;SDS011;32500;50.620;3.400;2023-05-10T14:01:40;91.65;;;54.03;;
46753;SDS011;32500;50.620;3.400;2023-05-10T14:04:06;91.28;;;54.25;;
46753;SDS011;32500;50.620;3.400;2023-05-10T14:06:35;91.78;;;54.22;;
46753;SDS011;32500;50.620;3.400;2023-05-10T14:09:01;90.93;;;53.78;;
46753;SDS011;32500;50.620;3.400;2023-05-10T14:11:27;92.68;;;54.42;;
46753;SDS011;32500;50.620;3.400;2023-05-10T14:13:53;90.18;;;53.88;;
46753;SDS011;32500;50.620;3.400;2023-05-10T14:16:26;92.03;;;53.67;;
46753;SDS011;32500;50.620;3.400;2023-05-10T14:18:52;90.97;;;54.10;;
46753;SDS011;32500;50.620;3.400;2023-05-10T14:21:18;91.03;;;54.00;;
46753;SDS011;32500;50.620;3.400;2023-05-10T14:23:43;93.03;;;53.83;;
46753;SDS011;32500;50.620;3.400;2023-05-10T14:26:09;91.80;;;54.08;;
46753;SDS011;32500;50.620;3.400;2023-05-10T14:28:35;90.68;;;53.63;;
46753;SDS011;32500;50.620;3.400;2023-05-10T14:31:00;90.95;;;53.85;;
46753;SDS011;32500;50.620;3.400;2023-05-10T14:33:26;91.00;;;53.90;;
46753;SDS011;32500;50.620;3.400;2023-05-10T14:35:53;92.38;;;54.08;;
46753;SDS011;32500;50.620;3.400;2023-05-10T14:38:19;91.28;;;53.78;;
46753;SDS011;32500;50.620;3.400;2023-05-10T14:40:45;92.65;;;53.80;;
46753;SDS011;32500;50.620;3.400;2023-05-10T14:43:11;92.07;;;54.08;;
46753;SDS011;32500;50.620;3.400;2023-05-10T14:45:36;91.32;;;54.03;;
46753;SDS011;32500;50.620;3.400;2023-05-10T14:48:02;91.05;;;53.72;;
46753;SDS011;32500;50.620;3.400;2023-05-10T14:50:29;94.07;;;53.83;;
46753;SDS011;32500;50.620;3.400;2023-05-10T14:52:56;91.30;;;53.75;;
46753;SDS011;32500;50.620;3.400;2023-05-10T14:55:22;92.90;;;53.92;;
46753;SDS011;32500;50.620;3.400;2023-05-10T14:57:48;92.88;;;53.70;;